createdAt,value
2023-05-05T00:01:19.455Z,9.61
2023-05-05T00:04:09.574Z,9.62
2023-05-05T00:06:58.609Z,9.53
2023-05-05T00:09:47.283Z,9.58
2023-05-05T00:12:36.282Z,9.64
2023-05-05T00:15:25.525Z,9.66
2023-05-05T00:18:17.165Z,9.51
2023-05-05T00:21:07.857Z,9.43
2023-05-05T00:23:56.592Z,9.46
2023-05-05T00:26:45.274Z,9.56
2023-05-05T00:29:34.005Z,9.50
2023-05-05T00:32:22.805Z,9.46
2023-05-05T00:35:11.542Z,9.36
2023-05-05T00:38:01.665Z,9.24
2023-05-05T00:40:50.514Z,9.19
2023-05-05T00:43:39.242Z,9.15
2023-05-05T00:46:32.267Z,9.14
2023-05-05T00:49:21.264Z,9.17
2023-05-05T00:52:11.395Z,9.12
2023-05-05T00:55:01.821Z,9.04
2023-05-05T00:57:51.048Z,8.87
2023-05-05T01:00:39.938Z,8.74
2023-05-05T01:03:28.890Z,8.69
2023-05-05T01:06:42.866Z,8.79
2023-05-05T01:09:43.805Z,8.89
2023-05-05T01:12:45.665Z,8.81
2023-05-05T01:15:38.623Z,8.85
2023-05-05T01:18:39.856Z,8.82
2023-05-05T01:21:34.724Z,8.65
2023-05-05T01:25:03.260Z,8.58
2023-05-05T01:28:12.254Z,8.53
2023-05-05T01:31:51.956Z,8.64
2023-05-05T01:34:49.209Z,8.64
2023-05-05T01:37:48.528Z,8.64
2023-05-05T01:40:44.777Z,8.48
2023-05-05T01:43:38.349Z,8.47
2023-05-05T01:46:28.793Z,8.39
2023-05-05T01:49:19.179Z,8.37
2023-05-05T01:52:11.385Z,8.39
2023-05-05T01:55:01.267Z,8.26
2023-05-05T01:57:51.894Z,8.22
2023-05-05T02:00:42.756Z,8.28
2023-05-05T02:03:34.338Z,8.03
2023-05-05T02:06:28.112Z,8.17
2023-05-05T02:09:21.984Z,8.18
2023-05-05T02:12:12.927Z,8.06
2023-05-05T02:15:06.263Z,8.08
2023-05-05T02:17:56.457Z,8.13
2023-05-05T02:20:47.565Z,7.91
2023-05-05T02:23:37.847Z,7.96
2023-05-05T02:26:27.181Z,8.01
2023-05-05T02:29:21.123Z,8.10
2023-05-05T02:32:18.104Z,8.02
2023-05-05T02:35:16.092Z,7.89
2023-05-05T02:38:13.556Z,7.95
2023-05-05T02:41:07.060Z,8.01
2023-05-05T02:43:58.973Z,8.12
2023-05-05T02:46:49.213Z,7.86
2023-05-05T02:49:38.404Z,7.79
2023-05-05T02:52:27.243Z,7.90
2023-05-05T02:55:16.734Z,7.61
2023-05-05T02:58:18.217Z,7.56
2023-05-05T03:01:22.731Z,7.61
2023-05-05T03:04:18.197Z,7.75
2023-05-05T03:07:21.346Z,7.85
2023-05-05T03:10:17.457Z,7.90
2023-05-05T03:13:15.158Z,7.86
2023-05-05T03:16:10.067Z,7.73
2023-05-05T03:19:00.271Z,7.73
2023-05-05T03:21:50.012Z,7.77
2023-05-05T03:24:38.810Z,7.66
2023-05-05T03:27:31.403Z,7.72
2023-05-05T03:30:22.165Z,7.78
2023-05-05T03:33:13.450Z,7.71
2023-05-05T03:36:03.788Z,7.63
2023-05-05T03:38:56.745Z,7.18
2023-05-05T03:41:51.131Z,7.32
2023-05-05T03:44:42.174Z,7.32
2023-05-05T03:47:35.259Z,7.32
2023-05-05T03:50:24.971Z,7.18
2023-05-05T03:53:13.846Z,7.33
2023-05-05T03:56:05.351Z,7.57
2023-05-05T03:58:54.200Z,7.65
2023-05-05T04:01:42.980Z,7.47
2023-05-05T04:04:33.251Z,7.54
2023-05-05T04:07:23.609Z,7.44
2023-05-05T04:10:15.234Z,7.20
2023-05-05T04:13:04.182Z,7.41
2023-05-05T04:15:53.689Z,7.44
2023-05-05T04:18:42.813Z,7.50
2023-05-05T04:21:33.056Z,7.57
2023-05-05T04:24:24.737Z,7.61
2023-05-05T04:27:15.098Z,7.69
2023-05-05T04:30:04.009Z,7.74
2023-05-05T04:32:56.822Z,7.71
2023-05-05T04:35:46.342Z,7.77
2023-05-05T04:38:36.726Z,7.91
2023-05-05T04:41:30.086Z,8.14
2023-05-05T04:44:22.167Z,8.18
2023-05-05T04:47:15.283Z,8.33
2023-05-05T04:50:04.784Z,8.33
2023-05-05T04:53:06.897Z,8.29
2023-05-05T04:55:57.124Z,8.47
2023-05-05T04:58:47.828Z,8.38
2023-05-05T05:01:38.607Z,8.55
2023-05-05T05:04:27.486Z,8.60
2023-05-05T05:07:16.309Z,8.41
2023-05-05T05:10:05.935Z,8.78
2023-05-05T05:13:00.722Z,9.05
2023-05-05T05:15:49.770Z,9.19
2023-05-05T05:18:38.943Z,9.48
2023-05-05T05:21:27.693Z,9.74
2023-05-05T05:24:17.365Z,9.94
2023-05-05T05:27:09.809Z,10.16
2023-05-05T05:30:00.402Z,10.39
2023-05-05T05:32:50.021Z,10.58
2023-05-05T05:35:39.818Z,10.57
2023-05-05T05:38:29.544Z,10.88
2023-05-05T05:41:23.111Z,11.14
2023-05-05T05:44:13.985Z,11.36
2023-05-05T05:47:04.642Z,11.62
2023-05-05T05:49:53.548Z,11.94
2023-05-05T05:52:42.563Z,12.20
2023-05-05T05:55:32.031Z,12.38
2023-05-05T05:58:26.595Z,12.74
2023-05-05T06:01:15.926Z,13.02
2023-05-05T06:04:06.822Z,13.31
2023-05-05T06:06:56.687Z,13.45
2023-05-05T06:09:45.902Z,13.67
2023-05-05T06:12:34.720Z,13.88
2023-05-05T06:15:25.529Z,14.22
2023-05-05T06:18:16.102Z,14.52
2023-05-05T06:21:06.882Z,14.78
2023-05-05T06:23:55.615Z,15.11
2023-05-05T06:26:44.454Z,15.17
2023-05-05T06:29:33.373Z,15.51
2023-05-05T06:32:22.155Z,15.70
2023-05-05T06:35:11.733Z,15.97
2023-05-05T06:38:01.871Z,16.13
2023-05-05T06:40:50.840Z,16.21
2023-05-05T06:43:40.592Z,16.36
2023-05-05T06:46:34.168Z,16.53
2023-05-05T06:49:24.554Z,16.83
2023-05-05T06:52:13.335Z,17.31
2023-05-05T06:55:03.840Z,17.61
2023-05-05T06:57:52.594Z,17.73
2023-05-05T07:00:42.355Z,18.13
2023-05-05T07:03:31.295Z,18.28
2023-05-05T07:06:20.111Z,18.28
2023-05-05T07:09:08.863Z,18.19
2023-05-05T07:11:58.928Z,18.36
2023-05-05T07:14:47.990Z,18.62
2023-05-05T07:17:36.840Z,19.02
2023-05-05T07:20:26.117Z,19.26
2023-05-05T07:23:14.837Z,19.25
2023-05-05T07:26:03.813Z,19.34
2023-05-05T07:28:55.382Z,19.19
2023-05-05T07:31:44.245Z,18.95
2023-05-05T07:34:34.561Z,18.69
2023-05-05T07:37:24.943Z,19.16
2023-05-05T07:40:14.563Z,19.28
2023-05-05T07:43:03.367Z,19.69
2023-05-05T07:45:53.609Z,19.70
2023-05-05T07:48:42.418Z,19.55
2023-05-05T07:51:34.411Z,19.86
2023-05-05T07:54:23.706Z,20.25
2023-05-05T07:57:12.646Z,20.32
2023-05-05T08:00:01.477Z,20.33
2023-05-05T08:02:51.757Z,20.33
2023-05-05T08:05:40.759Z,20.40
2023-05-05T08:08:29.594Z,20.59
2023-05-05T08:11:20.534Z,21.16
2023-05-05T08:14:09.570Z,21.65
2023-05-05T08:16:58.425Z,22.17
2023-05-05T08:19:48.497Z,22.38
2023-05-05T08:22:37.244Z,22.30
2023-05-05T08:25:26.875Z,22.69
2023-05-05T08:28:15.651Z,23.07
2023-05-05T08:31:05.454Z,23.33
2023-05-05T08:33:54.320Z,22.87
2023-05-05T08:36:44.478Z,23.45
2023-05-05T08:39:33.269Z,23.13
2023-05-05T08:42:35.470Z,23.28
2023-05-05T08:45:26.570Z,23.07
2023-05-05T08:48:20.596Z,23.46
2023-05-05T08:51:14.510Z,23.76
2023-05-05T08:54:11.601Z,24.19
2023-05-05T08:57:05.806Z,24.38
2023-05-05T08:59:58.805Z,24.18
2023-05-05T09:02:48.452Z,24.47
2023-05-05T09:05:40.256Z,24.92
2023-05-05T09:08:30.693Z,24.49
2023-05-05T09:11:21.543Z,24.66
2023-05-05T09:14:10.632Z,23.93
2023-05-05T09:16:59.430Z,23.82
2023-05-05T09:20:04.435Z,24.25
2023-05-05T09:22:53.313Z,24.65
2023-05-05T09:25:44.651Z,24.73
2023-05-05T09:28:35.753Z,24.86
2023-05-05T09:31:24.860Z,24.96
2023-05-05T09:34:18.120Z,25.18
2023-05-05T09:37:07.015Z,24.95
2023-05-05T09:39:56.924Z,25.56
2023-05-05T09:42:46.181Z,25.43
2023-05-05T09:45:36.872Z,25.69
2023-05-05T09:48:28.016Z,25.53
2023-05-05T09:51:17.248Z,25.95
2023-05-05T09:54:06.474Z,25.93
2023-05-05T09:56:56.414Z,26.20
2023-05-05T09:59:57.737Z,26.54
2023-05-05T10:02:48.208Z,26.55
2023-05-05T10:05:50.523Z,26.15
2023-05-05T10:08:39.360Z,26.85
2023-05-05T10:11:28.296Z,27.12
2023-05-05T10:14:19.601Z,27.37
2023-05-05T10:17:14.268Z,27.16
2023-05-05T10:20:06.356Z,27.54
2023-05-05T10:23:01.047Z,27.95
2023-05-05T10:25:58.089Z,28.12
2023-05-05T10:28:52.632Z,28.38
2023-05-05T10:31:50.780Z,28.29
2023-05-05T10:34:51.286Z,28.28
2023-05-05T10:37:43.413Z,28.31
2023-05-05T10:40:33.997Z,28.50
2023-05-05T10:43:23.070Z,27.67
2023-05-05T10:46:12.436Z,28.54
2023-05-05T10:49:13.923Z,28.54
2023-05-05T10:52:18.535Z,29.12
2023-05-05T10:55:17.611Z,29.14
2023-05-05T10:58:06.424Z,29.09
2023-05-05T11:00:55.408Z,29.50
2023-05-05T11:03:44.873Z,29.73
2023-05-05T11:06:34.507Z,29.02
2023-05-05T11:09:30.047Z,29.20
2023-05-05T11:12:20.126Z,29.07
2023-05-05T11:15:37.437Z,29.33
2023-05-05T11:18:37.995Z,29.84
2023-05-05T11:21:27.750Z,30.15
2023-05-05T11:24:30.061Z,30.27
2023-05-05T11:27:20.147Z,29.82
2023-05-05T11:30:11.686Z,28.48
2023-05-05T11:33:25.945Z,27.50
2023-05-05T11:36:17.899Z,28.56
2023-05-05T11:39:23.827Z,29.57
2023-05-05T11:42:30.195Z,29.31
2023-05-05T11:45:24.549Z,28.28
2023-05-05T11:48:25.905Z,28.12
2023-05-05T11:51:17.196Z,29.51
2023-05-05T11:54:06.592Z,29.40
2023-05-05T11:56:57.594Z,29.49
2023-05-05T11:59:56.484Z,30.62
2023-05-05T12:02:45.924Z,30.26
2023-05-05T12:05:36.708Z,31.12
2023-05-05T12:08:29.599Z,31.15
2023-05-05T12:11:19.380Z,29.76
2023-05-05T12:14:12.464Z,29.73
2023-05-05T12:17:09.024Z,30.96
2023-05-05T12:19:57.673Z,31.77
2023-05-05T12:22:46.419Z,31.95
2023-05-05T12:25:42.110Z,31.89
2023-05-05T12:28:51.156Z,31.13
2023-05-05T12:31:42.129Z,31.30
2023-05-05T12:34:33.312Z,31.49
2023-05-05T12:37:23.363Z,31.73
2023-05-05T12:40:47.419Z,32.34
2023-05-05T12:43:38.618Z,31.39
2023-05-05T12:46:29.626Z,31.73
2023-05-05T12:49:21.226Z,32.01
2023-05-05T12:52:11.399Z,30.98
2023-05-05T12:55:01.277Z,30.27
2023-05-05T12:58:04.472Z,30.65
2023-05-05T13:01:11.476Z,31.13
2023-05-05T13:04:16.026Z,30.84
2023-05-05T13:07:14.103Z,30.48
2023-05-05T13:10:10.884Z,30.10
2023-05-05T13:12:59.796Z,29.66
2023-05-05T13:15:48.527Z,28.41
2023-05-05T13:18:46.839Z,28.40
2023-05-05T13:21:35.652Z,28.06
2023-05-05T13:24:42.163Z,27.81
2023-05-05T13:27:38.848Z,26.06
2023-05-05T13:30:27.652Z,25.59
2023-05-05T13:33:16.429Z,25.38
2023-05-05T13:36:06.044Z,24.54
2023-05-05T13:38:55.473Z,25.00
2023-05-05T13:41:45.730Z,25.07
2023-05-05T13:44:35.885Z,25.07
2023-05-05T13:47:24.969Z,24.44
2023-05-05T13:50:17.925Z,24.29
2023-05-05T13:53:15.789Z,24.38
2023-05-05T13:56:05.180Z,24.40
2023-05-05T13:58:55.332Z,24.25
2023-05-05T14:01:44.149Z,24.30
2023-05-05T14:04:38.683Z,24.20
2023-05-05T14:07:29.134Z,24.15
2023-05-05T14:10:17.932Z,24.13
2023-05-05T14:13:07.011Z,24.31
2023-05-05T14:15:59.747Z,24.03
2023-05-05T14:18:48.611Z,24.59
2023-05-05T14:21:37.468Z,24.49
2023-05-05T14:24:26.445Z,24.74
2023-05-05T14:27:15.314Z,24.79
2023-05-05T14:30:04.882Z,24.84
2023-05-05T14:32:55.326Z,24.86
2023-05-05T14:35:44.083Z,25.31
2023-05-05T14:38:32.927Z,25.84
2023-05-05T14:41:21.812Z,26.25
2023-05-05T14:44:10.811Z,26.14
2023-05-05T14:47:02.060Z,26.26
2023-05-05T14:49:52.315Z,26.15
2023-05-05T14:52:41.427Z,25.82
2023-05-05T14:55:30.266Z,25.90
2023-05-05T14:58:22.388Z,26.05
2023-05-05T15:01:11.334Z,25.85
2023-05-05T15:04:00.288Z,25.65
2023-05-05T15:06:50.738Z,25.75
2023-05-05T15:09:39.580Z,25.62
2023-05-05T15:12:29.197Z,25.28
2023-05-05T15:15:18.408Z,25.14
2023-05-05T15:18:07.354Z,24.82
2023-05-05T15:20:56.096Z,24.78
2023-05-05T15:23:46.204Z,24.62
2023-05-05T15:26:34.938Z,24.20
2023-05-05T15:29:23.722Z,23.32
2023-05-05T15:32:12.508Z,23.06
2023-05-05T15:35:03.857Z,22.87
2023-05-05T15:37:54.013Z,22.59
2023-05-05T15:40:47.205Z,22.79
2023-05-05T15:43:37.869Z,23.14
2023-05-05T15:46:28.255Z,23.11
2023-05-05T15:49:17.008Z,22.77
2023-05-05T15:52:08.947Z,22.74
2023-05-05T15:55:01.144Z,22.81
2023-05-05T15:57:55.352Z,23.17
2023-05-05T16:00:44.232Z,23.03
2023-05-05T16:03:33.151Z,22.76
2023-05-05T16:06:22.093Z,22.93
2023-05-05T16:09:11.345Z,22.45
2023-05-05T16:12:02.622Z,22.37
2023-05-05T16:14:55.634Z,22.50
2023-05-05T16:17:44.510Z,22.19
2023-05-05T16:20:33.341Z,22.20
2023-05-05T16:23:22.520Z,22.10
2023-05-05T16:26:11.808Z,21.84
2023-05-05T16:29:00.620Z,22.04
2023-05-05T16:31:51.333Z,22.18
2023-05-05T16:34:40.611Z,22.21
2023-05-05T16:37:31.756Z,22.33
2023-05-05T16:40:20.864Z,22.34
2023-05-05T16:43:11.620Z,22.25
2023-05-05T16:46:00.767Z,22.20
2023-05-05T16:48:53.825Z,22.33
2023-05-05T16:51:42.681Z,22.49
2023-05-05T16:54:37.721Z,22.58
2023-05-05T16:57:26.960Z,22.83
2023-05-05T17:00:16.531Z,22.91
2023-05-05T17:03:05.621Z,22.82
2023-05-05T17:05:55.942Z,22.69
2023-05-05T17:08:47.498Z,22.29
2023-05-05T17:11:36.247Z,22.09
2023-05-05T17:14:25.316Z,21.99
2023-05-05T17:17:14.215Z,21.82
2023-05-05T17:20:04.772Z,21.78
2023-05-05T17:22:54.962Z,21.71
2023-05-05T17:25:48.067Z,21.50
2023-05-05T17:28:39.475Z,21.29
2023-05-05T17:31:28.197Z,21.34
2023-05-05T17:34:17.180Z,21.75
2023-05-05T17:37:09.061Z,21.63
2023-05-05T17:39:59.366Z,21.77
2023-05-05T17:42:48.175Z,21.86
2023-05-05T17:45:40.426Z,21.71
2023-05-05T17:48:29.854Z,21.56
2023-05-05T17:51:19.566Z,21.30
2023-05-05T17:54:14.731Z,21.24
2023-05-05T17:57:05.096Z,21.30
2023-05-05T17:59:55.056Z,21.01
2023-05-05T18:02:44.845Z,20.86
2023-05-05T18:05:36.299Z,20.76
2023-05-05T18:08:27.547Z,20.80
2023-05-05T18:11:16.437Z,20.83
2023-05-05T18:14:07.227Z,20.75
2023-05-05T18:16:56.114Z,20.75
2023-05-05T18:19:46.611Z,20.68
2023-05-05T18:22:38.857Z,20.44
2023-05-05T18:25:27.716Z,19.92
2023-05-05T18:28:16.722Z,19.75
2023-05-05T18:31:11.034Z,19.83
2023-05-05T18:34:00.116Z,19.82
2023-05-05T18:36:51.517Z,19.86
2023-05-05T18:39:41.618Z,19.85
2023-05-05T18:42:34.727Z,19.80
2023-05-05T18:45:25.367Z,19.69
2023-05-05T18:48:15.548Z,19.89
2023-05-05T18:51:07.080Z,19.99
2023-05-05T18:53:56.314Z,19.89
2023-05-05T18:56:45.157Z,19.76
2023-05-05T18:59:34.385Z,19.55
2023-05-05T19:02:23.316Z,19.44
2023-05-05T19:05:13.822Z,19.40
2023-05-05T19:08:02.631Z,19.21
2023-05-05T19:10:51.347Z,19.13
2023-05-05T19:13:40.977Z,19.40
2023-05-05T19:16:30.323Z,19.42
2023-05-05T19:19:19.271Z,19.58
2023-05-05T19:22:09.461Z,19.77
2023-05-05T19:24:58.254Z,19.85
2023-05-05T19:27:49.760Z,19.85
2023-05-05T19:30:39.175Z,19.87
2023-05-05T19:33:28.808Z,19.76
2023-05-05T19:36:19.242Z,19.56
2023-05-05T19:39:09.662Z,19.70
2023-05-05T19:41:58.991Z,19.56
2023-05-05T19:44:47.902Z,19.26
2023-05-05T19:47:39.171Z,19.29
2023-05-05T19:50:30.220Z,19.20
2023-05-05T19:53:21.846Z,19.15
2023-05-05T19:56:12.150Z,19.24
2023-05-05T19:59:05.027Z,19.34
2023-05-05T20:01:54.241Z,19.54
2023-05-05T20:04:43.405Z,19.68
2023-05-05T20:07:32.160Z,19.79
2023-05-05T20:10:24.466Z,19.66
2023-05-05T20:13:14.963Z,19.81
2023-05-05T20:16:03.856Z,19.65
2023-05-05T20:18:52.766Z,19.78
2023-05-05T20:21:41.583Z,19.88
2023-05-05T20:24:30.431Z,19.75
2023-05-05T20:27:21.496Z,19.62
2023-05-05T20:30:13.141Z,19.65
2023-05-05T20:33:03.368Z,19.62
2023-05-05T20:35:52.329Z,19.65
2023-05-05T20:38:41.383Z,19.71
2023-05-05T20:41:30.146Z,19.02
2023-05-05T20:44:22.337Z,19.04
2023-05-05T20:47:14.882Z,19.24
2023-05-05T20:50:03.703Z,19.21
2023-05-05T20:52:52.785Z,19.08
2023-05-05T20:55:41.873Z,18.55
2023-05-05T20:58:31.142Z,18.41
2023-05-05T21:01:19.944Z,18.22
2023-05-05T21:04:10.143Z,18.28
2023-05-05T21:06:59.155Z,18.13
2023-05-05T21:09:48.867Z,18.21
2023-05-05T21:12:38.033Z,18.38
2023-05-05T21:15:26.879Z,18.41
2023-05-05T21:18:15.679Z,18.44
2023-05-05T21:21:06.241Z,18.58
2023-05-05T21:23:55.210Z,18.48
2023-05-05T21:26:44.555Z,18.05
2023-05-05T21:29:37.516Z,17.75
2023-05-05T21:32:26.836Z,17.50
2023-05-05T21:35:15.792Z,17.61
2023-05-05T21:38:06.065Z,17.52
2023-05-05T21:40:58.129Z,17.62
2023-05-05T21:43:47.104Z,17.74
2023-05-05T21:46:35.935Z,17.79
2023-05-05T21:49:24.724Z,17.93
2023-05-05T21:52:13.580Z,18.27
2023-05-05T21:55:04.219Z,18.25
2023-05-05T21:57:53.402Z,18.60
2023-05-05T22:00:42.937Z,18.54
2023-05-05T22:03:33.300Z,18.49
2023-05-05T22:06:22.569Z,18.26
2023-05-05T22:09:11.732Z,18.00
2023-05-05T22:12:02.559Z,18.21
2023-05-05T22:14:51.446Z,18.25
2023-05-05T22:17:40.265Z,18.33
2023-05-05T22:20:30.922Z,18.50
2023-05-05T22:23:19.672Z,18.76
2023-05-05T22:26:08.731Z,18.95
2023-05-05T22:28:58.899Z,19.20
2023-05-05T22:31:47.849Z,19.41
2023-05-05T22:34:36.744Z,19.46
2023-05-05T22:37:25.538Z,19.41
2023-05-05T22:40:14.638Z,19.44
2023-05-05T22:43:03.462Z,19.21
2023-05-05T22:45:54.689Z,19.16
2023-05-05T22:48:43.418Z,19.23
2023-05-05T22:51:32.119Z,19.24
2023-05-05T22:54:20.937Z,19.22
2023-05-05T22:57:10.197Z,19.03
2023-05-05T22:59:58.955Z,18.68
2023-05-05T23:02:49.369Z,18.49
2023-05-05T23:05:38.513Z,18.37
2023-05-05T23:08:27.370Z,18.16
2023-05-05T23:11:16.179Z,18.13
2023-05-05T23:14:05.006Z,18.04
2023-05-05T23:16:53.776Z,18.25
2023-05-05T23:19:44.434Z,18.36
2023-05-05T23:22:33.225Z,18.41
2023-05-05T23:25:22.022Z,18.69
2023-05-05T23:28:10.949Z,18.63
2023-05-05T23:30:59.881Z,18.52
2023-05-05T23:33:48.727Z,18.49
2023-05-05T23:36:38.802Z,18.51
2023-05-05T23:39:27.609Z,18.38
2023-05-05T23:42:16.321Z,18.43
2023-05-05T23:45:06.009Z,18.26
2023-05-05T23:47:54.951Z,18.08
2023-05-05T23:50:44.060Z,18.18
2023-05-05T23:53:34.474Z,18.13
2023-05-05T23:56:23.836Z,17.96
2023-05-05T23:59:12.662Z,17.85
